Purlear, NC (28665)

8:07 PM EST on February 09, 2016 (GMT -0500)
Job's Cabin Township | | Change Station
CLOSE
Current Station
Personal Weather Station
Location: Purlear, NC
Elevation: 3353 ft
Nearby Weather Stations

Elev 3353 ft 36.28 °N, 81.39 °W | Updated 2 minutes ago

Partly Cloudy
Partly Cloudy
17.6 °F
Feels Like 18 °F
N
1.0
Wind Variable Wind from NW
Gusts 1.0 mph

Today
High -- | Low -- °F
--% Chance of Precip.
Yesterday
High -- | Low -- °F
Precip. -- in
Pressure 29.66 in
Visibility 10.0 miles
Clouds Clear
Windchill 18 °F
Dew Point 11 °F
Humidity 74%
Rainfall 0.00 in
Snow Depth Not available.
7:19 AM 6:00 PM
Waxing Crescent, 3% visible
METAR KGEV 100055Z AUTO 29023G35KT 10SM -SN CLR M09/M14 A2966 RMK AO2 T10861137
Pressure 29.66 in
Visibility 10.0 miles
Clouds Clear
Windchill 18 °F
Dew Point 11 °F
Humidity 74%
Rainfall 0.00 in
Snow Depth Not available.
7:19 AM 6:00 PM
Waxing Crescent, 3% visible
METAR KGEV 100055Z AUTO 29023G35KT 10SM -SN CLR M09/M14 A2966 RMK AO2 T10861137
Winter Storm Nacio, the third winter storm in five days to affect the Northeast, is bringing pockets of locally heavy snow to parts of the Ohio Valley, Appalachians and mid-Atlantic states Tuesday. Winter storm warnings are posted for parts of southern Pennsylvania, southern Ohio and the higher peaks of the Appalachians. Winter weather advisories, generally for lighter snow accumulations, stretch from northeast Alabama and far north Georgia to southern Connecticut and Long Island.

10-Day Weather Forecast

Almanac

Astronomy

Feb. 09, 2016 Rise Set
Actual Time
Civil Twilight
Nautical Twilight
Astronomical Twilight
Moon
Length of Visible Light
Length of Day
Tomorrow will be .
, % of the Moon is Illuminated

Today's Extremes

State Highs State Lows

Community

WunderPhotos

Upload Photos

1,891,752 photos uploaded!

WunderBlog® & News

Nearby

Air Quality

  Air Quality AQ Index Pollutant
Not available.

Snow Depth

Station Depth Elevation

Earthquake Activity

City Distance Mag. Time & Date
Minimum magnitude displayed is 2.5.

Coastal Water Temperatures

Place Temperature

Stations

Nearby Weather Stations

Station Location Temp. Windchill Dew Point Humidity Wind Precip. Elev Updated Type
                   

Watches & Warnings

There are currently no watches in effect.